sensor_id;sensor_type;location;lat;lon;timestamp;P1;durP1;ratioP1;P2;durP2;ratioP2
74523;SDS011;63004;44.694;10.422;2022-08-19T14:04:49;0.68;;;0.68;;
74523;SDS011;63004;44.694;10.422;2022-08-19T14:09:25;0.95;;;0.55;;
74523;SDS011;63004;44.694;10.422;2022-08-19T14:11:50;0.52;;;0.28;;
74523;SDS011;63004;44.694;10.422;2022-08-19T14:14:16;0.73;;;0.60;;
74523;SDS011;63004;44.694;10.422;2022-08-19T14:16:41;0.20;;;0.20;;
74523;SDS011;63004;44.694;10.422;2022-08-19T14:19:07;0.35;;;0.35;;
74523;SDS011;63004;44.694;10.422;2022-08-19T14:21:33;0.52;;;0.52;;
74523;SDS011;63004;44.694;10.422;2022-08-19T14:23:59;0.65;;;0.40;;
74523;SDS011;63004;44.694;10.422;2022-08-19T14:26:26;2.28;;;0.50;;
74523;SDS011;63004;44.694;10.422;2022-08-19T14:28:51;0.32;;;0.32;;
74523;SDS011;63004;44.694;10.422;2022-08-19T14:31:17;1.48;;;0.50;;
74523;SDS011;63004;44.694;10.422;2022-08-19T14:33:45;1.40;;;0.45;;
74523;SDS011;63004;44.694;10.422;2022-08-19T14:36:12;0.55;;;0.55;;
74523;SDS011;63004;44.694;10.422;2022-08-19T14:38:37;6.95;;;0.60;;
74523;SDS011;63004;44.694;10.422;2022-08-19T14:41:14;0.43;;;0.38;;
74523;SDS011;63004;44.694;10.422;2022-08-19T14:43:45;0.30;;;0.30;;
74523;SDS011;63004;44.694;10.422;2022-08-19T14:46:14;1.73;;;0.80;;
74523;SDS011;63004;44.694;10.422;2022-08-19T14:48:40;4.68;;;0.50;;
74523;SDS011;63004;44.694;10.422;2022-08-19T14:51:06;0.50;;;0.50;;
74523;SDS011;63004;44.694;10.422;2022-08-19T14:53:31;0.45;;;0.40;;
74523;SDS011;63004;44.694;10.422;2022-08-19T14:55:58;0.47;;;0.40;;
74523;SDS011;63004;44.694;10.422;2022-08-19T14:58:24;0.30;;;0.30;;
74523;SDS011;63004;44.694;10.422;2022-08-19T15:00:50;0.47;;;0.40;;
74523;SDS011;63004;44.694;10.422;2022-08-19T15:03:15;1.30;;;0.30;;
74523;SDS011;63004;44.694;10.422;2022-08-19T15:05:41;2.40;;;0.55;;
74523;SDS011;63004;44.694;10.422;2022-08-19T15:08:06;0.20;;;0.20;;
74523;SDS011;63004;44.694;10.422;2022-08-19T15:10:31;0.43;;;0.30;;
74523;SDS011;63004;44.694;10.422;2022-08-19T15:12:57;2.20;;;0.52;;
74523;SDS011;63004;44.694;10.422;2022-08-19T15:15:23;0.45;;;0.40;;
74523;SDS011;63004;44.694;10.422;2022-08-19T15:17:48;1.38;;;0.30;;
74523;SDS011;63004;44.694;10.422;2022-08-19T15:20:15;0.40;;;0.40;;
74523;SDS011;63004;44.694;10.422;2022-08-19T15:22:43;0.68;;;0.38;;
74523;SDS011;63004;44.694;10.422;2022-08-19T15:25:09;0.40;;;0.40;;
74523;SDS011;63004;44.694;10.422;2022-08-19T15:27:36;0.30;;;0.30;;
74523;SDS011;63004;44.694;10.422;2022-08-19T15:30:03;1.48;;;0.40;;
74523;SDS011;63004;44.694;10.422;2022-08-19T15:32:29;0.65;;;0.35;;
74523;SDS011;63004;44.694;10.422;2022-08-19T15:34:55;0.85;;;0.38;;
74523;SDS011;63004;44.694;10.422;2022-08-19T15:37:21;0.30;;;0.30;;
74523;SDS011;63004;44.694;10.422;2022-08-19T15:39:47;0.50;;;0.50;;
74523;SDS011;63004;44.694;10.422;2022-08-19T15:42:13;0.77;;;0.40;;
74523;SDS011;63004;44.694;10.422;2022-08-19T15:44:38;0.63;;;0.43;;
74523;SDS011;63004;44.694;10.422;2022-08-19T15:47:04;1.40;;;0.28;;
74523;SDS011;63004;44.694;10.422;2022-08-19T15:49:29;0.50;;;0.50;;
74523;SDS011;63004;44.694;10.422;2022-08-19T15:51:55;1.40;;;0.50;;
74523;SDS011;63004;44.694;10.422;2022-08-19T15:54:22;0.52;;;0.40;;
74523;SDS011;63004;44.694;10.422;2022-08-19T15:56:48;0.63;;;0.63;;
74523;SDS011;63004;44.694;10.422;2022-08-19T15:59:34;0.82;;;0.57;;
74523;SDS011;63004;44.694;10.422;2022-08-19T16:02:20;0.28;;;0.28;;
74523;SDS011;63004;44.694;10.422;2022-08-19T16:05:07;0.57;;;0.47;;
74523;SDS011;63004;44.694;10.422;2022-08-19T16:07:52;1.77;;;0.50;;
74523;SDS011;63004;44.694;10.422;2022-08-19T16:10:18;0.30;;;0.30;;
74523;SDS011;63004;44.694;10.422;2022-08-19T16:12:44;0.43;;;0.43;;
74523;SDS011;63004;44.694;10.422;2022-08-19T16:15:10;0.52;;;0.47;;
74523;SDS011;63004;44.694;10.422;2022-08-19T16:17:35;0.65;;;0.40;;
74523;SDS011;63004;44.694;10.422;2022-08-19T16:20:02;0.85;;;0.60;;
74523;SDS011;63004;44.694;10.422;2022-08-19T16:22:30;0.40;;;0.40;;
74523;SDS011;63004;44.694;10.422;2022-08-19T16:24:57;2.15;;;0.40;;
74523;SDS011;63004;44.694;10.422;2022-08-19T16:27:23;1.30;;;0.50;;
74523;SDS011;63004;44.694;10.422;2022-08-19T16:29:49;0.40;;;0.40;;
74523;SDS011;63004;44.694;10.422;2022-08-19T16:32:14;0.30;;;0.30;;
74523;SDS011;63004;44.694;10.422;2022-08-19T16:34:40;0.40;;;0.38;;
74523;SDS011;63004;44.694;10.422;2022-08-19T16:37:06;0.50;;;0.50;;
74523;SDS011;63004;44.694;10.422;2022-08-19T16:39:32;0.50;;;0.50;;
74523;SDS011;63004;44.694;10.422;2022-08-19T16:41:57;1.98;;;0.40;;
74523;SDS011;63004;44.694;10.422;2022-08-19T16:44:23;0.38;;;0.38;;
74523;SDS011;63004;44.694;10.422;2022-08-19T16:46:51;1.63;;;0.60;;
74523;SDS011;63004;44.694;10.422;2022-08-19T16:49:18;0.55;;;0.55;;
74523;SDS011;63004;44.694;10.422;2022-08-19T16:51:44;0.40;;;0.40;;
74523;SDS011;63004;44.694;10.422;2022-08-19T16:54:10;0.40;;;0.40;;
74523;SDS011;63004;44.694;10.422;2022-08-19T16:56:36;0.73;;;0.70;;
74523;SDS011;63004;44.694;10.422;2022-08-19T16:59:02;1.02;;;0.40;;
74523;SDS011;63004;44.694;10.422;2022-08-19T17:01:28;0.40;;;0.40;;
74523;SDS011;63004;44.694;10.422;2022-08-19T17:03:53;0.40;;;0.40;;
74523;SDS011;63004;44.694;10.422;2022-08-19T17:06:21;0.43;;;0.43;;
74523;SDS011;63004;44.694;10.422;2022-08-19T17:08:51;0.75;;;0.43;;
74523;SDS011;63004;44.694;10.422;2022-08-19T17:11:19;0.45;;;0.40;;
74523;SDS011;63004;44.694;10.422;2022-08-19T17:13:47;0.88;;;0.40;;
74523;SDS011;63004;44.694;10.422;2022-08-19T17:16:15;0.40;;;0.40;;
74523;SDS011;63004;44.694;10.422;2022-08-19T17:18:42;0.47;;;0.47;;
74523;SDS011;63004;44.694;10.422;2022-08-19T17:21:07;0.63;;;0.40;;
74523;SDS011;63004;44.694;10.422;2022-08-19T17:23:33;0.40;;;0.40;;
74523;SDS011;63004;44.694;10.422;2022-08-19T17:25:59;0.52;;;0.43;;
74523;SDS011;63004;44.694;10.422;2022-08-19T17:28:25;0.50;;;0.50;;
74523;SDS011;63004;44.694;10.422;2022-08-19T17:30:53;2.28;;;0.40;;
74523;SDS011;63004;44.694;10.422;2022-08-19T17:33:18;0.50;;;0.50;;
74523;SDS011;63004;44.694;10.422;2022-08-19T17:35:44;0.43;;;0.32;;
74523;SDS011;63004;44.694;10.422;2022-08-19T17:38:11;0.40;;;0.40;;
74523;SDS011;63004;44.694;10.422;2022-08-19T17:40:39;0.38;;;0.38;;
74523;SDS011;63004;44.694;10.422;2022-08-19T17:43:06;0.75;;;0.70;;
74523;SDS011;63004;44.694;10.422;2022-08-19T17:45:33;0.85;;;0.35;;
74523;SDS011;63004;44.694;10.422;2022-08-19T17:47:59;0.60;;;0.60;;
74523;SDS011;63004;44.694;10.422;2022-08-19T17:50:26;0.30;;;0.30;;
74523;SDS011;63004;44.694;10.422;2022-08-19T17:52:51;0.65;;;0.63;;
74523;SDS011;63004;44.694;10.422;2022-08-19T17:55:18;1.17;;;0.70;;
74523;SDS011;63004;44.694;10.422;2022-08-19T17:57:44;0.50;;;0.38;;
74523;SDS011;63004;44.694;10.422;2022-08-19T18:00:10;0.43;;;0.43;;
74523;SDS011;63004;44.694;10.422;2022-08-19T18:05:15;1.27;;;0.45;;
74523;SDS011;63004;44.694;10.422;2022-08-19T18:07:42;0.75;;;0.60;;
74523;SDS011;63004;44.694;10.422;2022-08-19T18:10:08;1.48;;;0.52;;
74523;SDS011;63004;44.694;10.422;2022-08-19T18:12:34;0.50;;;0.50;;
74523;SDS011;63004;44.694;10.422;2022-08-19T18:15:00;0.45;;;0.45;;
74523;SDS011;63004;44.694;10.422;2022-08-19T18:17:27;0.52;;;0.50;;
74523;SDS011;63004;44.694;10.422;2022-08-19T18:19:54;0.68;;;0.60;;
74523;SDS011;63004;44.694;10.422;2022-08-19T18:22:24;0.57;;;0.57;;
74523;SDS011;63004;44.694;10.422;2022-08-19T18:24:55;0.50;;;0.40;;
74523;SDS011;63004;44.694;10.422;2022-08-19T18:27:22;0.80;;;0.57;;
74523;SDS011;63004;44.694;10.422;2022-08-19T18:29:49;0.75;;;0.70;;
74523;SDS011;63004;44.694;10.422;2022-08-19T18:32:16;0.80;;;0.80;;
74523;SDS011;63004;44.694;10.422;2022-08-19T18:34:42;0.80;;;0.80;;
74523;SDS011;63004;44.694;10.422;2022-08-19T18:37:09;0.52;;;0.52;;
74523;SDS011;63004;44.694;10.422;2022-08-19T18:39:35;0.70;;;0.68;;
74523;SDS011;63004;44.694;10.422;2022-08-19T18:42:19;0.77;;;0.77;;
74523;SDS011;63004;44.694;10.422;2022-08-19T18:45:04;0.80;;;0.70;;
74523;SDS011;63004;44.694;10.422;2022-08-19T18:47:49;0.70;;;0.70;;
74523;SDS011;63004;44.694;10.422;2022-08-19T18:50:33;1.50;;;0.80;;
74523;SDS011;63004;44.694;10.422;2022-08-19T18:52:58;3.17;;;1.30;;
74523;SDS011;63004;44.694;10.422;2022-08-19T18:55:24;0.85;;;0.85;;
74523;SDS011;63004;44.694;10.422;2022-08-19T18:57:51;1.48;;;1.23;;
74523;SDS011;63004;44.694;10.422;2022-08-19T19:00:17;1.08;;;0.98;;
74523;SDS011;63004;44.694;10.422;2022-08-19T19:02:42;0.73;;;0.73;;
74523;SDS011;63004;44.694;10.422;2022-08-19T19:05:11;0.60;;;0.60;;
74523;SDS011;63004;44.694;10.422;2022-08-19T19:07:39;2.55;;;0.90;;
74523;SDS011;63004;44.694;10.422;2022-08-19T19:10:05;1.50;;;0.93;;
74523;SDS011;63004;44.694;10.422;2022-08-19T19:12:35;1.05;;;0.98;;
74523;SDS011;63004;44.694;10.422;2022-08-19T19:15:08;2.20;;;1.30;;
74523;SDS011;63004;44.694;10.422;2022-08-19T19:17:34;3.45;;;1.10;;
74523;SDS011;63004;44.694;10.422;2022-08-19T19:19:59;0.85;;;0.85;;
74523;SDS011;63004;44.694;10.422;2022-08-19T19:22:25;2.53;;;1.13;;
74523;SDS011;63004;44.694;10.422;2022-08-19T19:24:50;2.00;;;1.85;;
74523;SDS011;63004;44.694;10.422;2022-08-19T19:27:18;0.90;;;0.90;;
74523;SDS011;63004;44.694;10.422;2022-08-19T19:29:44;3.15;;;1.20;;
74523;SDS011;63004;44.694;10.422;2022-08-19T19:32:16;1.10;;;0.95;;
74523;SDS011;63004;44.694;10.422;2022-08-19T19:34:55;1.38;;;0.98;;
74523;SDS011;63004;44.694;10.422;2022-08-19T19:37:20;1.45;;;0.93;;
74523;SDS011;63004;44.694;10.422;2022-08-19T19:39:46;2.65;;;1.35;;
74523;SDS011;63004;44.694;10.422;2022-08-19T19:42:15;1.23;;;1.13;;
74523;SDS011;63004;44.694;10.422;2022-08-19T19:44:43;2.35;;;1.30;;
74523;SDS011;63004;44.694;10.422;2022-08-19T19:47:12;1.73;;;1.25;;
74523;SDS011;63004;44.694;10.422;2022-08-19T19:49:39;1.95;;;1.50;;
74523;SDS011;63004;44.694;10.422;2022-08-19T19:52:05;2.03;;;1.17;;
74523;SDS011;63004;44.694;10.422;2022-08-19T19:54:31;1.20;;;1.10;;
74523;SDS011;63004;44.694;10.422;2022-08-19T19:56:57;0.90;;;0.90;;
74523;SDS011;63004;44.694;10.422;2022-08-19T19:59:23;3.10;;;1.17;;
74523;SDS011;63004;44.694;10.422;2022-08-19T20:01:48;1.30;;;1.15;;
74523;SDS011;63004;44.694;10.422;2022-08-19T20:04:15;1.00;;;0.75;;
74523;SDS011;63004;44.694;10.422;2022-08-19T20:06:42;1.10;;;1.10;;
74523;SDS011;63004;44.694;10.422;2022-08-19T20:09:08;3.95;;;1.42;;
74523;SDS011;63004;44.694;10.422;2022-08-19T20:11:57;1.95;;;1.02;;
74523;SDS011;63004;44.694;10.422;2022-08-19T20:14:27;3.15;;;1.13;;
74523;SDS011;63004;44.694;10.422;2022-08-19T20:19:22;2.97;;;1.02;;
74523;SDS011;63004;44.694;10.422;2022-08-19T20:21:56;1.13;;;0.93;;
74523;SDS011;63004;44.694;10.422;2022-08-19T20:24:25;0.90;;;0.90;;
74523;SDS011;63004;44.694;10.422;2022-08-19T20:26:52;1.05;;;0.73;;
74523;SDS011;63004;44.694;10.422;2022-08-19T20:29:18;4.10;;;1.27;;
74523;SDS011;63004;44.694;10.422;2022-08-19T20:31:44;1.00;;;1.00;;
74523;SDS011;63004;44.694;10.422;2022-08-19T20:34:11;2.00;;;0.88;;
74523;SDS011;63004;44.694;10.422;2022-08-19T20:36:38;1.05;;;1.00;;
74523;SDS011;63004;44.694;10.422;2022-08-19T20:39:04;1.08;;;0.90;;
74523;SDS011;63004;44.694;10.422;2022-08-19T20:41:29;2.88;;;1.13;;
74523;SDS011;63004;44.694;10.422;2022-08-19T20:43:56;3.13;;;1.20;;
74523;SDS011;63004;44.694;10.422;2022-08-19T20:46:23;0.90;;;0.90;;
74523;SDS011;63004;44.694;10.422;2022-08-19T20:48:48;1.00;;;1.00;;
74523;SDS011;63004;44.694;10.422;2022-08-19T20:51:14;1.08;;;1.02;;
74523;SDS011;63004;44.694;10.422;2022-08-19T20:53:39;1.33;;;1.20;;
74523;SDS011;63004;44.694;10.422;2022-08-19T20:56:06;1.25;;;1.05;;
74523;SDS011;63004;44.694;10.422;2022-08-19T20:58:32;1.17;;;1.08;;
74523;SDS011;63004;44.694;10.422;2022-08-19T21:00:59;1.55;;;0.93;;
74523;SDS011;63004;44.694;10.422;2022-08-19T21:03:27;1.25;;;1.00;;
74523;SDS011;63004;44.694;10.422;2022-08-19T21:05:54;1.10;;;1.10;;
74523;SDS011;63004;44.694;10.422;2022-08-19T21:08:21;1.35;;;1.15;;
74523;SDS011;63004;44.694;10.422;2022-08-19T21:10:48;1.40;;;1.30;;
74523;SDS011;63004;44.694;10.422;2022-08-19T21:13:15;1.48;;;1.00;;
74523;SDS011;63004;44.694;10.422;2022-08-19T21:15:42;1.98;;;1.05;;
74523;SDS011;63004;44.694;10.422;2022-08-19T21:18:09;0.95;;;0.93;;
74523;SDS011;63004;44.694;10.422;2022-08-19T21:20:36;1.08;;;0.85;;
74523;SDS011;63004;44.694;10.422;2022-08-19T21:23:05;2.35;;;1.17;;
74523;SDS011;63004;44.694;10.422;2022-08-19T21:25:31;2.70;;;1.20;;
74523;SDS011;63004;44.694;10.422;2022-08-19T21:27:57;1.30;;;1.20;;
74523;SDS011;63004;44.694;10.422;2022-08-19T21:30:23;1.95;;;1.70;;
74523;SDS011;63004;44.694;10.422;2022-08-19T21:32:48;2.60;;;1.92;;
74523;SDS011;63004;44.694;10.422;2022-08-19T21:35:14;4.53;;;3.85;;
74523;SDS011;63004;44.694;10.422;2022-08-19T21:37:39;3.17;;;2.40;;
74523;SDS011;63004;44.694;10.422;2022-08-19T21:40:05;3.13;;;1.73;;
74523;SDS011;63004;44.694;10.422;2022-08-19T21:42:32;10.48;;;3.20;;
74523;SDS011;63004;44.694;10.422;2022-08-19T21:44:57;2.75;;;2.33;;
74523;SDS011;63004;44.694;10.422;2022-08-19T21:47:23;2.30;;;1.63;;
74523;SDS011;63004;44.694;10.422;2022-08-19T21:49:49;3.50;;;1.90;;
74523;SDS011;63004;44.694;10.422;2022-08-19T21:52:21;1.67;;;1.52;;
74523;SDS011;63004;44.694;10.422;2022-08-19T21:54:47;1.83;;;1.73;;
74523;SDS011;63004;44.694;10.422;2022-08-19T21:57:13;6.35;;;1.85;;
74523;SDS011;63004;44.694;10.422;2022-08-19T21:59:38;4.32;;;1.42;;
74523;SDS011;63004;44.694;10.422;2022-08-19T22:02:05;2.22;;;1.55;;
74523;SDS011;63004;44.694;10.422;2022-08-19T22:04:30;1.60;;;1.50;;
74523;SDS011;63004;44.694;10.422;2022-08-19T22:06:55;2.75;;;1.65;;
74523;SDS011;63004;44.694;10.422;2022-08-19T22:09:21;1.55;;;1.45;;
74523;SDS011;63004;44.694;10.422;2022-08-19T22:11:46;2.83;;;1.90;;
74523;SDS011;63004;44.694;10.422;2022-08-19T22:14:13;1.30;;;1.20;;
74523;SDS011;63004;44.694;10.422;2022-08-19T22:16:38;1.00;;;1.00;;
74523;SDS011;63004;44.694;10.422;2022-08-19T22:19:04;1.48;;;1.20;;
74523;SDS011;63004;44.694;10.422;2022-08-19T22:21:30;1.33;;;1.10;;
74523;SDS011;63004;44.694;10.422;2022-08-19T22:23:55;1.67;;;1.58;;
74523;SDS011;63004;44.694;10.422;2022-08-19T22:26:21;1.58;;;1.48;;
74523;SDS011;63004;44.694;10.422;2022-08-19T22:28:46;1.95;;;1.20;;
74523;SDS011;63004;44.694;10.422;2022-08-19T22:31:11;1.27;;;1.27;;
74523;SDS011;63004;44.694;10.422;2022-08-19T22:33:37;1.60;;;1.50;;
74523;SDS011;63004;44.694;10.422;2022-08-19T22:36:04;1.55;;;1.42;;
74523;SDS011;63004;44.694;10.422;2022-08-19T22:38:31;1.52;;;1.35;;
74523;SDS011;63004;44.694;10.422;2022-08-19T22:40:57;1.50;;;1.40;;
74523;SDS011;63004;44.694;10.422;2022-08-19T22:43:26;1.25;;;1.13;;
74523;SDS011;63004;44.694;10.422;2022-08-19T22:45:58;1.48;;;1.15;;
74523;SDS011;63004;44.694;10.422;2022-08-19T22:48:25;2.13;;;1.50;;
74523;SDS011;63004;44.694;10.422;2022-08-19T22:50:53;1.95;;;1.10;;
74523;SDS011;63004;44.694;10.422;2022-08-19T22:53:38;1.80;;;1.27;;
74523;SDS011;63004;44.694;10.422;2022-08-19T22:56:06;2.42;;;1.23;;
74523;SDS011;63004;44.694;10.422;2022-08-19T22:58:33;1.30;;;1.20;;
74523;SDS011;63004;44.694;10.422;2022-08-19T23:00:59;1.05;;;1.05;;
74523;SDS011;63004;44.694;10.422;2022-08-19T23:03:25;1.67;;;1.30;;
74523;SDS011;63004;44.694;10.422;2022-08-19T23:05:50;1.27;;;1.17;;
74523;SDS011;63004;44.694;10.422;2022-08-19T23:08:16;1.38;;;1.10;;
74523;SDS011;63004;44.694;10.422;2022-08-19T23:10:41;1.10;;;1.00;;
74523;SDS011;63004;44.694;10.422;2022-08-19T23:13:06;1.42;;;1.25;;
74523;SDS011;63004;44.694;10.422;2022-08-19T23:15:33;1.30;;;1.20;;
74523;SDS011;63004;44.694;10.422;2022-08-19T23:18:00;1.25;;;1.10;;
74523;SDS011;63004;44.694;10.422;2022-08-19T23:20:29;1.10;;;1.10;;
74523;SDS011;63004;44.694;10.422;2022-08-19T23:23:00;0.95;;;0.95;;
74523;SDS011;63004;44.694;10.422;2022-08-19T23:25:28;1.20;;;1.10;;
74523;SDS011;63004;44.694;10.422;2022-08-19T23:27:55;1.67;;;1.00;;
74523;SDS011;63004;44.694;10.422;2022-08-19T23:30:41;1.70;;;0.93;;
74523;SDS011;63004;44.694;10.422;2022-08-19T23:35:40;1.90;;;1.10;;
74523;SDS011;63004;44.694;10.422;2022-08-19T23:38:06;2.35;;;1.00;;
74523;SDS011;63004;44.694;10.422;2022-08-19T23:40:33;3.00;;;1.30;;
74523;SDS011;63004;44.694;10.422;2022-08-19T23:42:59;3.30;;;1.17;;
74523;SDS011;63004;44.694;10.422;2022-08-19T23:45:27;1.00;;;1.00;;
74523;SDS011;63004;44.694;10.422;2022-08-19T23:47:54;0.98;;;0.98;;
74523;SDS011;63004;44.694;10.422;2022-08-19T23:50:21;2.00;;;1.50;;
74523;SDS011;63004;44.694;10.422;2022-08-19T23:52:52;2.97;;;1.10;;
74523;SDS011;63004;44.694;10.422;2022-08-19T23:55:20;1.70;;;1.30;;
74523;SDS011;63004;44.694;10.422;2022-08-19T23:57:48;4.75;;;1.30;;
